VKG1478 ESSV-LGRP
Flight info
| Callsign | VKG1478 |
|---|---|
| Flight time | 3h 13m |
| Altitude | 35000 |
| Route | VSB T316 PENOR N133 POLON DCT GEVNA DCT LENOV DCT PERIT DCT AGNEP DCT NULGO DCT OSTOV N127 ROVAM DCT ETRIL DCT OTKOK N127 NIKTI DCT MES UN139 LURUS UL995 USINI L995 CODIC |
| Aircraft | A321/M-SDE3FGHIRWY/LB1 |
Departure
| Time | 2026-04-22 05:25 |
|---|---|
| Airport | Visby Airport (ESSV) |
Arrival
| Time | 2026-04-22 08:38 |
|---|---|
| Airport | Rhodes International Airport "Diagoras" (LGRP) |
| Time | Latitude | Longitude | Altitude | Speed | Heading |
|---|---|---|---|---|---|
| 2026-04-22 04:49 | 57.65978 | 18.33900 | 159 ft | 0 kts | 336° |
| 2026-04-22 05:21 | 57.65987 | 18.33905 | 159 ft | 2 kts | 34° |
| 2026-04-22 05:21 | 57.65991 | 18.33979 | 159 ft | 10 kts | 76° |
| 2026-04-22 05:21 | 57.66001 | 18.34156 | 159 ft | 17 kts | 110° |
| 2026-04-22 05:22 | 57.65956 | 18.34341 | 157 ft | 14 kts | 134° |
| 2026-04-22 05:22 | 57.65869 | 18.34330 | 156 ft | 13 kts | 202° |
| 2026-04-22 05:22 | 57.65784 | 18.34266 | 158 ft | 15 kts | 201° |
| 2026-04-22 05:22 | 57.65676 | 18.34189 | 159 ft | 19 kts | 201° |
| 2026-04-22 05:23 | 57.65553 | 18.34098 | 159 ft | 18 kts | 202° |
| 2026-04-22 05:23 | 57.65472 | 18.34009 | 157 ft | 7 kts | 202° |
| 2026-04-22 05:23 | 57.65467 | 18.34030 | 157 ft | 1 kts | 64° |
| 2026-04-22 05:23 | 57.65481 | 18.34050 | 157 ft | 4 kts | 32° |
| 2026-04-22 05:24 | 57.65490 | 18.34056 | 157 ft | 0 kts | 20° |
| 2026-04-22 05:24 | 57.65494 | 18.34059 | 157 ft | 9 kts | 20° |
| 2026-04-22 05:24 | 57.65858 | 18.34321 | 157 ft | 100 kts | 21° |
| 2026-04-22 05:24 | 57.66744 | 18.34952 | 197 ft | 166 kts | 21° |
| 2026-04-22 05:25 | 57.67837 | 18.35721 | 1028 ft | 168 kts | 15° |
| 2026-04-22 05:25 | 57.68998 | 18.35662 | 1604 ft | 179 kts | 335° |
| 2026-04-22 05:25 | 57.69832 | 18.33833 | 1769 ft | 202 kts | 288° |
| 2026-04-22 05:25 | 57.69701 | 18.31105 | 1897 ft | 229 kts | 247° |
| 2026-04-22 05:26 | 57.68800 | 18.28518 | 2253 ft | 245 kts | 233° |
| 2026-04-22 05:26 | 57.67639 | 18.26037 | 2727 ft | 259 kts | 229° |
| 2026-04-22 05:26 | 57.66409 | 18.23560 | 3489 ft | 262 kts | 229° |
| 2026-04-22 05:26 | 57.65173 | 18.21030 | 4222 ft | 265 kts | 231° |
| 2026-04-22 05:27 | 57.63943 | 18.18428 | 4947 ft | 269 kts | 233° |
| 2026-04-22 05:27 | 57.62718 | 18.15757 | 5653 ft | 273 kts | 234° |
| 2026-04-22 05:27 | 57.61490 | 18.13025 | 6361 ft | 277 kts | 235° |
| 2026-04-22 05:27 | 57.60259 | 18.10248 | 7042 ft | 280 kts | 235° |
| 2026-04-22 05:28 | 57.58977 | 18.07459 | 7681 ft | 287 kts | 228° |
| 2026-04-22 05:28 | 57.57401 | 18.05104 | 8314 ft | 294 kts | 219° |
| 2026-04-22 05:28 | 57.55743 | 18.02912 | 8963 ft | 298 kts | 218° |
| 2026-04-22 05:28 | 57.54042 | 18.00666 | 9609 ft | 302 kts | 218° |
| 2026-04-22 05:29 | 57.52315 | 17.98393 | 10227 ft | 306 kts | 218° |
| 2026-04-22 05:29 | 57.50538 | 17.96046 | 10504 ft | 323 kts | 218° |
| 2026-04-22 05:29 | 57.48651 | 17.93542 | 10640 ft | 344 kts | 218° |
| 2026-04-22 05:29 | 57.46637 | 17.90910 | 10765 ft | 364 kts | 214° |
| 2026-04-22 05:30 | 57.44343 | 17.88741 | 11144 ft | 375 kts | 202° |
| 2026-04-22 05:30 | 57.41867 | 17.87385 | 11680 ft | 381 kts | 193° |
| 2026-04-22 05:30 | 57.39267 | 17.86310 | 12274 ft | 384 kts | 193° |
| 2026-04-22 05:30 | 57.36646 | 17.85215 | 12872 ft | 388 kts | 193° |
| 2026-04-22 05:31 | 57.34250 | 17.84207 | 13419 ft | 391 kts | 193° |
| 2026-04-22 05:31 | 57.31590 | 17.83089 | 14008 ft | 394 kts | 193° |
| 2026-04-22 05:31 | 57.28902 | 17.81960 | 14531 ft | 397 kts | 193° |
| 2026-04-22 05:31 | 57.26192 | 17.80829 | 15072 ft | 400 kts | 193° |
| 2026-04-22 05:32 | 57.23470 | 17.79701 | 15610 ft | 403 kts | 193° |
| 2026-04-22 05:32 | 57.20728 | 17.78566 | 16149 ft | 405 kts | 192° |
| 2026-04-22 05:32 | 57.17971 | 17.77426 | 16680 ft | 407 kts | 192° |
| 2026-04-22 05:32 | 57.15199 | 17.76279 | 17209 ft | 410 kts | 192° |
| 2026-04-22 05:33 | 57.12408 | 17.75121 | 17725 ft | 412 kts | 192° |
| 2026-04-22 05:33 | 57.09604 | 17.73960 | 18235 ft | 414 kts | 192° |
| 2026-04-22 05:33 | 57.06781 | 17.72796 | 18700 ft | 417 kts | 192° |
| 2026-04-22 05:33 | 57.03939 | 17.71625 | 19139 ft | 419 kts | 192° |
| 2026-04-22 05:34 | 57.01089 | 17.70454 | 19580 ft | 421 kts | 192° |
| 2026-04-22 05:34 | 56.98222 | 17.69277 | 20022 ft | 423 kts | 192° |
| 2026-04-22 05:34 | 56.95341 | 17.68096 | 20458 ft | 425 kts | 192° |
| 2026-04-22 05:34 | 56.92447 | 17.66912 | 20894 ft | 427 kts | 192° |
| 2026-04-22 05:35 | 56.89577 | 17.65741 | 21314 ft | 429 kts | 192° |
| 2026-04-22 05:35 | 56.86658 | 17.64554 | 21747 ft | 431 kts | 192° |
| 2026-04-22 05:35 | 56.83726 | 17.63364 | 22168 ft | 433 kts | 191° |
| 2026-04-22 05:35 | 56.80775 | 17.62168 | 22596 ft | 435 kts | 191° |
| 2026-04-22 05:36 | 56.77814 | 17.60969 | 23000 ft | 438 kts | 191° |
| 2026-04-22 05:36 | 56.74831 | 17.59758 | 23408 ft | 440 kts | 191° |
| 2026-04-22 05:36 | 56.71840 | 17.58544 | 23808 ft | 442 kts | 191° |
| 2026-04-22 05:36 | 56.68828 | 17.57323 | 24144 ft | 444 kts | 191° |
| 2026-04-22 05:37 | 56.65806 | 17.56100 | 24463 ft | 446 kts | 191° |
| 2026-04-22 05:37 | 56.62764 | 17.54874 | 24785 ft | 448 kts | 191° |
| 2026-04-22 05:37 | 56.59716 | 17.53651 | 25107 ft | 450 kts | 191° |
| 2026-04-22 05:37 | 56.56646 | 17.52420 | 25429 ft | 452 kts | 191° |
| 2026-04-22 05:38 | 56.53567 | 17.51185 | 25739 ft | 455 kts | 191° |
| 2026-04-22 05:38 | 56.50468 | 17.49946 | 26055 ft | 457 kts | 191° |
| 2026-04-22 05:38 | 56.47360 | 17.48707 | 26362 ft | 459 kts | 191° |
| 2026-04-22 05:38 | 56.44239 | 17.47462 | 26675 ft | 461 kts | 191° |
| 2026-04-22 05:39 | 56.41103 | 17.46218 | 26986 ft | 462 kts | 191° |
| 2026-04-22 05:39 | 56.37957 | 17.44972 | 27287 ft | 464 kts | 191° |
| 2026-04-22 05:39 | 56.34795 | 17.43718 | 27584 ft | 466 kts | 191° |
| 2026-04-22 05:39 | 56.31624 | 17.42463 | 27872 ft | 468 kts | 190° |
| 2026-04-22 05:40 | 56.28435 | 17.41202 | 28158 ft | 470 kts | 190° |
| 2026-04-22 05:40 | 56.25237 | 17.39939 | 28444 ft | 471 kts | 190° |
| 2026-04-22 05:40 | 56.22029 | 17.38673 | 28737 ft | 473 kts | 190° |
| 2026-04-22 05:40 | 56.18807 | 17.37405 | 29017 ft | 475 kts | 190° |
| 2026-04-22 05:41 | 56.15575 | 17.36138 | 29399 ft | 475 kts | 188° |
| 2026-04-22 05:41 | 56.12356 | 17.34875 | 29821 ft | 473 kts | 188° |
| 2026-04-22 05:41 | 56.09145 | 17.33617 | 30227 ft | 472 kts | 188° |
| 2026-04-22 05:41 | 56.05943 | 17.32364 | 30563 ft | 471 kts | 188° |
| 2026-04-22 05:42 | 56.02742 | 17.31116 | 30872 ft | 471 kts | 188° |
| 2026-04-22 05:42 | 55.99545 | 17.29875 | 31170 ft | 470 kts | 188° |
| 2026-04-22 05:42 | 55.96347 | 17.28636 | 31455 ft | 471 kts | 188° |
| 2026-04-22 05:42 | 55.93142 | 17.27396 | 31747 ft | 471 kts | 188° |
| 2026-04-22 05:43 | 55.89984 | 17.26175 | 32035 ft | 471 kts | 188° |
| 2026-04-22 05:43 | 55.86745 | 17.24924 | 32328 ft | 471 kts | 188° |
| 2026-04-22 05:43 | 55.83928 | 17.23837 | 32577 ft | 471 kts | 188° |
| 2026-04-22 05:43 | 55.80771 | 17.22623 | 32848 ft | 471 kts | 188° |
| 2026-04-22 05:44 | 55.77566 | 17.21392 | 33133 ft | 471 kts | 188° |
| 2026-04-22 05:44 | 55.74361 | 17.20162 | 33403 ft | 472 kts | 188° |
| 2026-04-22 05:44 | 55.71149 | 17.18928 | 33669 ft | 472 kts | 187° |
| 2026-04-22 05:44 | 55.67920 | 17.18079 | 33926 ft | 467 kts | 179° |
| 2026-04-22 05:45 | 55.64692 | 17.18092 | 34167 ft | 461 kts | 169° |
| 2026-04-22 05:45 | 55.61536 | 17.18940 | 34372 ft | 455 kts | 161° |
| 2026-04-22 05:45 | 55.58529 | 17.20548 | 34554 ft | 450 kts | 153° |
| 2026-04-22 05:45 | 55.55677 | 17.22781 | 34733 ft | 448 kts | 150° |
| 2026-04-22 05:46 | 55.52841 | 17.25086 | 34911 ft | 449 kts | 150° |
| 2026-04-22 05:46 | 55.50003 | 17.27372 | 35102 ft | 449 kts | 150° |
| 2026-04-22 05:46 | 55.44297 | 17.31944 | 35222 ft | 450 kts | 150° |
| 2026-04-22 05:47 | 55.38602 | 17.36503 | 35220 ft | 449 kts | 150° |
| 2026-04-22 05:47 | 55.32902 | 17.41049 | 35223 ft | 450 kts | 150° |
| 2026-04-22 05:48 | 55.27244 | 17.45555 | 35223 ft | 450 kts | 150° |
| 2026-04-22 05:48 | 55.21539 | 17.50088 | 35228 ft | 450 kts | 150° |
| 2026-04-22 05:49 | 55.15824 | 17.54559 | 35230 ft | 450 kts | 151° |
| 2026-04-22 05:49 | 55.10077 | 17.58936 | 35227 ft | 450 kts | 151° |
| 2026-04-22 05:50 | 55.04324 | 17.63301 | 35226 ft | 450 kts | 151° |
| 2026-04-22 05:50 | 54.98578 | 17.67679 | 35205 ft | 451 kts | 151° |
| 2026-04-22 05:51 | 54.92837 | 17.72128 | 35207 ft | 452 kts | 150° |
| 2026-04-22 05:51 | 54.87116 | 17.76679 | 35216 ft | 453 kts | 150° |
| 2026-04-22 05:52 | 54.81376 | 17.81223 | 35219 ft | 454 kts | 150° |
| 2026-04-22 05:52 | 54.75623 | 17.85726 | 35232 ft | 454 kts | 150° |
| 2026-04-22 05:53 | 54.69860 | 17.90194 | 35233 ft | 454 kts | 150° |
| 2026-04-22 05:53 | 54.64137 | 17.94621 | 35241 ft | 454 kts | 150° |
| 2026-04-22 05:54 | 54.58319 | 17.99107 | 35241 ft | 454 kts | 151° |
| 2026-04-22 05:54 | 54.52545 | 18.03546 | 35240 ft | 454 kts | 151° |
| 2026-04-22 05:55 | 54.46771 | 18.07992 | 35237 ft | 454 kts | 150° |
| 2026-04-22 05:55 | 54.41005 | 18.12419 | 35235 ft | 454 kts | 151° |
| 2026-04-22 05:56 | 54.35255 | 18.16796 | 35238 ft | 455 kts | 151° |
| 2026-04-22 05:56 | 54.29473 | 18.21179 | 35233 ft | 454 kts | 151° |
| 2026-04-22 05:57 | 54.23685 | 18.25546 | 35239 ft | 455 kts | 151° |
| 2026-04-22 05:57 | 54.17878 | 18.29880 | 35240 ft | 455 kts | 151° |
| 2026-04-22 05:58 | 54.12082 | 18.34191 | 35243 ft | 455 kts | 151° |
| 2026-04-22 05:58 | 54.06280 | 18.38498 | 35248 ft | 455 kts | 151° |
| 2026-04-22 05:59 | 54.00477 | 18.42801 | 35248 ft | 455 kts | 151° |
| 2026-04-22 05:59 | 53.94673 | 18.47091 | 35255 ft | 455 kts | 151° |
| 2026-04-22 06:00 | 53.88867 | 18.51371 | 35257 ft | 455 kts | 151° |
| 2026-04-22 06:00 | 53.83049 | 18.55642 | 35254 ft | 455 kts | 151° |
| 2026-04-22 06:01 | 53.77237 | 18.59895 | 35254 ft | 455 kts | 151° |
| 2026-04-22 06:01 | 53.71459 | 18.64113 | 35258 ft | 455 kts | 151° |
| 2026-04-22 06:02 | 53.65639 | 18.68349 | 35256 ft | 455 kts | 152° |
| 2026-04-22 06:02 | 53.60076 | 18.72392 | 35254 ft | 456 kts | 152° |
| 2026-04-22 06:03 | 53.54255 | 18.76608 | 35250 ft | 456 kts | 152° |
| 2026-04-22 06:03 | 53.48249 | 18.80194 | 35250 ft | 460 kts | 158° |
| 2026-04-22 06:04 | 53.43131 | 18.82879 | 35251 ft | 460 kts | 158° |
| 2026-04-22 06:04 | 53.37017 | 18.86099 | 35249 ft | 461 kts | 158° |
| 2026-04-22 06:05 | 53.30904 | 18.89315 | 35250 ft | 461 kts | 158° |
| 2026-04-22 06:05 | 53.24788 | 18.92524 | 35250 ft | 461 kts | 158° |
| 2026-04-22 06:06 | 53.18707 | 18.95694 | 35248 ft | 461 kts | 158° |
| 2026-04-22 06:06 | 53.12582 | 18.98880 | 35249 ft | 461 kts | 158° |
| 2026-04-22 06:07 | 53.06458 | 19.02055 | 35248 ft | 461 kts | 158° |
| 2026-04-22 06:07 | 53.00327 | 19.05227 | 35236 ft | 461 kts | 158° |
| 2026-04-22 06:08 | 52.94195 | 19.08393 | 35244 ft | 462 kts | 158° |
| 2026-04-22 06:08 | 52.88061 | 19.11557 | 35250 ft | 462 kts | 158° |
| 2026-04-22 06:09 | 52.81922 | 19.14704 | 35235 ft | 462 kts | 158° |
| 2026-04-22 06:09 | 52.75780 | 19.17845 | 35243 ft | 462 kts | 158° |
| 2026-04-22 06:10 | 52.69637 | 19.20965 | 35241 ft | 462 kts | 158° |
| 2026-04-22 06:10 | 52.63489 | 19.24076 | 35234 ft | 462 kts | 158° |
| 2026-04-22 06:11 | 52.57341 | 19.27190 | 35235 ft | 462 kts | 158° |
| 2026-04-22 06:11 | 52.51232 | 19.30274 | 35235 ft | 462 kts | 158° |
| 2026-04-22 06:12 | 52.45084 | 19.33378 | 35234 ft | 462 kts | 158° |
| 2026-04-22 06:12 | 52.38930 | 19.36463 | 35229 ft | 462 kts | 158° |
| 2026-04-22 06:13 | 52.32775 | 19.39543 | 35229 ft | 463 kts | 158° |
| 2026-04-22 06:13 | 52.26614 | 19.42613 | 35227 ft | 463 kts | 159° |
| 2026-04-22 06:14 | 52.20451 | 19.45678 | 35229 ft | 463 kts | 159° |
| 2026-04-22 06:14 | 52.14288 | 19.48740 | 35228 ft | 463 kts | 159° |
| 2026-04-22 06:15 | 52.08121 | 19.51802 | 35230 ft | 463 kts | 159° |
| 2026-04-22 06:15 | 52.01951 | 19.54846 | 35225 ft | 464 kts | 159° |
| 2026-04-22 06:16 | 51.95776 | 19.57889 | 35225 ft | 464 kts | 159° |
| 2026-04-22 06:16 | 51.89598 | 19.60920 | 35227 ft | 464 kts | 159° |
| 2026-04-22 06:17 | 51.83420 | 19.63940 | 35226 ft | 464 kts | 159° |
| 2026-04-22 06:17 | 51.77300 | 19.67025 | 35228 ft | 463 kts | 157° |
| 2026-04-22 06:18 | 51.71269 | 19.70609 | 35230 ft | 462 kts | 155° |
| 2026-04-22 06:18 | 51.65278 | 19.74361 | 35224 ft | 462 kts | 155° |
| 2026-04-22 06:19 | 51.59258 | 19.78012 | 35227 ft | 463 kts | 156° |
| 2026-04-22 06:19 | 51.53200 | 19.81574 | 35223 ft | 463 kts | 156° |
| 2026-04-22 06:20 | 51.47144 | 19.85111 | 35224 ft | 463 kts | 156° |
| 2026-04-22 06:20 | 51.41099 | 19.88656 | 35221 ft | 463 kts | 156° |
| 2026-04-22 06:21 | 51.35181 | 19.92135 | 35205 ft | 463 kts | 156° |
| 2026-04-22 06:21 | 51.29309 | 19.95572 | 35209 ft | 463 kts | 156° |
| 2026-04-22 06:22 | 51.23258 | 19.99101 | 35207 ft | 463 kts | 156° |
| 2026-04-22 06:22 | 51.17199 | 20.02621 | 35212 ft | 463 kts | 157° |
| 2026-04-22 06:23 | 51.11137 | 20.06127 | 35212 ft | 464 kts | 157° |
| 2026-04-22 06:23 | 51.05076 | 20.09624 | 35216 ft | 463 kts | 157° |
| 2026-04-22 06:24 | 50.95984 | 20.14876 | 35212 ft | 463 kts | 157° |
| 2026-04-22 06:25 | 50.89927 | 20.18366 | 35212 ft | 463 kts | 157° |
| 2026-04-22 06:25 | 50.83869 | 20.21836 | 35210 ft | 463 kts | 157° |
| 2026-04-22 06:26 | 50.77811 | 20.25291 | 35206 ft | 463 kts | 158° |
| 2026-04-22 06:26 | 50.71754 | 20.28735 | 35204 ft | 462 kts | 158° |
| 2026-04-22 06:27 | 50.65701 | 20.32172 | 35197 ft | 462 kts | 158° |
| 2026-04-22 06:27 | 50.59643 | 20.35599 | 35199 ft | 462 kts | 158° |
| 2026-04-22 06:28 | 50.53594 | 20.39019 | 35190 ft | 462 kts | 158° |
| 2026-04-22 06:28 | 50.47537 | 20.42439 | 35189 ft | 463 kts | 158° |
| 2026-04-22 06:29 | 50.41478 | 20.45852 | 35190 ft | 463 kts | 158° |
| 2026-04-22 06:29 | 50.35465 | 20.49218 | 35189 ft | 462 kts | 158° |
| 2026-04-22 06:30 | 50.29396 | 20.52601 | 35183 ft | 462 kts | 158° |
| 2026-04-22 06:30 | 50.23334 | 20.55980 | 35181 ft | 463 kts | 158° |
| 2026-04-22 06:31 | 50.17265 | 20.59347 | 35183 ft | 463 kts | 158° |
| 2026-04-22 06:31 | 50.11197 | 20.62707 | 35176 ft | 463 kts | 158° |
| 2026-04-22 06:32 | 50.05128 | 20.66068 | 35179 ft | 463 kts | 158° |
| 2026-04-22 06:32 | 49.99058 | 20.69425 | 35179 ft | 463 kts | 159° |
| 2026-04-22 06:33 | 49.92985 | 20.72763 | 35182 ft | 463 kts | 159° |
| 2026-04-22 06:33 | 49.86850 | 20.75839 | 35180 ft | 463 kts | 161° |
| 2026-04-22 06:34 | 49.80676 | 20.78705 | 35177 ft | 464 kts | 162° |
| 2026-04-22 06:34 | 49.74489 | 20.81598 | 35175 ft | 463 kts | 161° |
| 2026-04-22 06:35 | 49.68334 | 20.84544 | 35171 ft | 463 kts | 161° |
| 2026-04-22 06:35 | 49.62176 | 20.87503 | 35170 ft | 463 kts | 161° |
| 2026-04-22 06:36 | 49.56022 | 20.90450 | 35162 ft | 463 kts | 161° |
| 2026-04-22 06:36 | 49.49869 | 20.93368 | 35158 ft | 463 kts | 161° |
| 2026-04-22 06:37 | 49.43750 | 20.96256 | 35154 ft | 463 kts | 162° |
| 2026-04-22 06:37 | 49.37593 | 20.99153 | 35151 ft | 463 kts | 162° |
| 2026-04-22 06:38 | 49.31423 | 21.02015 | 35147 ft | 463 kts | 163° |
| 2026-04-22 06:38 | 49.25193 | 21.04593 | 35148 ft | 464 kts | 165° |
| 2026-04-22 06:39 | 49.18937 | 21.07039 | 35152 ft | 464 kts | 165° |
| 2026-04-22 06:39 | 49.12681 | 21.09524 | 35147 ft | 464 kts | 164° |
| 2026-04-22 06:40 | 49.06435 | 21.12053 | 35146 ft | 464 kts | 164° |
| 2026-04-22 06:40 | 49.00193 | 21.14596 | 35148 ft | 464 kts | 164° |
| 2026-04-22 06:41 | 48.93950 | 21.17118 | 35145 ft | 464 kts | 164° |
| 2026-04-22 06:41 | 48.87700 | 21.19625 | 35145 ft | 465 kts | 165° |
| 2026-04-22 06:42 | 48.81445 | 21.22120 | 35143 ft | 464 kts | 165° |
| 2026-04-22 06:42 | 48.75196 | 21.24616 | 35143 ft | 464 kts | 165° |
| 2026-04-22 06:43 | 48.68949 | 21.27097 | 35139 ft | 464 kts | 165° |
| 2026-04-22 06:43 | 48.62709 | 21.29578 | 35136 ft | 464 kts | 165° |
| 2026-04-22 06:44 | 48.56468 | 21.32050 | 35133 ft | 464 kts | 165° |
| 2026-04-22 06:44 | 48.50223 | 21.34513 | 35131 ft | 464 kts | 165° |
| 2026-04-22 06:45 | 48.44016 | 21.36959 | 35133 ft | 464 kts | 165° |
| 2026-04-22 06:45 | 48.37770 | 21.39413 | 35132 ft | 464 kts | 165° |
| 2026-04-22 06:46 | 48.31529 | 21.41858 | 35129 ft | 464 kts | 165° |
| 2026-04-22 06:46 | 48.25290 | 21.44303 | 35134 ft | 463 kts | 165° |
| 2026-04-22 06:47 | 48.19057 | 21.46741 | 35135 ft | 463 kts | 165° |
| 2026-04-22 06:47 | 48.12816 | 21.49165 | 35136 ft | 463 kts | 165° |
| 2026-04-22 06:48 | 48.06579 | 21.51589 | 35141 ft | 463 kts | 165° |
| 2026-04-22 06:48 | 48.00337 | 21.54001 | 35143 ft | 463 kts | 165° |
| 2026-04-22 06:49 | 47.94098 | 21.56399 | 35146 ft | 463 kts | 165° |
| 2026-04-22 06:49 | 47.87864 | 21.58810 | 35144 ft | 463 kts | 165° |
| 2026-04-22 06:50 | 47.81632 | 21.61205 | 35137 ft | 463 kts | 166° |
| 2026-04-22 06:50 | 47.75529 | 21.64245 | 35137 ft | 463 kts | 158° |
| 2026-04-22 06:51 | 47.69594 | 21.67809 | 35137 ft | 463 kts | 158° |
| 2026-04-22 06:51 | 47.63610 | 21.71374 | 35139 ft | 464 kts | 158° |
| 2026-04-22 06:52 | 47.57622 | 21.74933 | 35140 ft | 464 kts | 158° |
| 2026-04-22 06:52 | 47.51629 | 21.78490 | 35139 ft | 464 kts | 158° |
| 2026-04-22 06:53 | 47.46607 | 21.81458 | 35142 ft | 464 kts | 158° |
| 2026-04-22 06:53 | 47.40600 | 21.85004 | 35139 ft | 465 kts | 158° |
| 2026-04-22 06:54 | 47.34639 | 21.88513 | 35139 ft | 464 kts | 158° |
| 2026-04-22 06:54 | 47.28633 | 21.92035 | 35136 ft | 464 kts | 158° |
| 2026-04-22 06:55 | 47.22628 | 21.95560 | 35134 ft | 465 kts | 159° |
| 2026-04-22 06:55 | 47.16625 | 21.99078 | 35133 ft | 465 kts | 159° |
| 2026-04-22 06:56 | 47.10610 | 22.02592 | 35130 ft | 465 kts | 159° |
| 2026-04-22 06:56 | 47.04589 | 22.06096 | 35130 ft | 465 kts | 159° |
| 2026-04-22 06:57 | 46.98564 | 22.09585 | 35126 ft | 465 kts | 159° |
| 2026-04-22 06:57 | 46.92547 | 22.13070 | 35123 ft | 465 kts | 159° |
| 2026-04-22 06:58 | 46.86520 | 22.16550 | 35113 ft | 466 kts | 159° |
| 2026-04-22 06:58 | 46.80492 | 22.20031 | 35107 ft | 466 kts | 159° |
| 2026-04-22 06:59 | 46.74451 | 22.23504 | 35094 ft | 466 kts | 159° |
| 2026-04-22 06:59 | 46.68416 | 22.26968 | 35096 ft | 466 kts | 159° |
| 2026-04-22 07:00 | 46.62374 | 22.30425 | 35093 ft | 466 kts | 160° |
| 2026-04-22 07:00 | 46.56337 | 22.33872 | 35083 ft | 466 kts | 160° |
| 2026-04-22 07:01 | 46.50300 | 22.37309 | 35081 ft | 466 kts | 160° |
| 2026-04-22 07:01 | 46.44256 | 22.40744 | 35086 ft | 466 kts | 160° |
| 2026-04-22 07:02 | 46.38211 | 22.44162 | 35081 ft | 466 kts | 160° |
| 2026-04-22 07:02 | 46.32168 | 22.47574 | 35079 ft | 466 kts | 160° |
| 2026-04-22 07:03 | 46.26119 | 22.50989 | 35080 ft | 467 kts | 160° |
| 2026-04-22 07:03 | 46.20068 | 22.54392 | 35080 ft | 466 kts | 160° |
| 2026-04-22 07:04 | 46.14021 | 22.57793 | 35077 ft | 467 kts | 160° |
| 2026-04-22 07:04 | 46.07960 | 22.61189 | 35077 ft | 467 kts | 161° |
| 2026-04-22 07:05 | 46.01936 | 22.64552 | 35073 ft | 467 kts | 161° |
| 2026-04-22 07:05 | 45.95832 | 22.67949 | 35076 ft | 467 kts | 161° |
| 2026-04-22 07:06 | 45.89807 | 22.71296 | 35072 ft | 467 kts | 161° |
| 2026-04-22 07:06 | 45.83742 | 22.74660 | 35070 ft | 468 kts | 161° |
| 2026-04-22 07:07 | 45.77671 | 22.78014 | 35068 ft | 468 kts | 161° |
| 2026-04-22 07:07 | 45.71597 | 22.81368 | 35065 ft | 468 kts | 161° |
| 2026-04-22 07:08 | 45.65506 | 22.84733 | 35062 ft | 468 kts | 161° |
| 2026-04-22 07:08 | 45.59421 | 22.88078 | 35056 ft | 468 kts | 161° |
| 2026-04-22 07:09 | 45.53335 | 22.91417 | 35050 ft | 469 kts | 161° |
| 2026-04-22 07:09 | 45.47243 | 22.94751 | 35052 ft | 469 kts | 162° |
| 2026-04-22 07:10 | 45.41151 | 22.98084 | 35048 ft | 469 kts | 161° |
| 2026-04-22 07:10 | 45.35113 | 23.01427 | 35046 ft | 469 kts | 161° |
| 2026-04-22 07:11 | 45.29046 | 23.04781 | 35044 ft | 469 kts | 161° |
| 2026-04-22 07:11 | 45.22946 | 23.08136 | 35050 ft | 469 kts | 162° |
| 2026-04-22 07:12 | 45.16858 | 23.11473 | 35055 ft | 469 kts | 162° |
| 2026-04-22 07:12 | 45.10761 | 23.14812 | 35058 ft | 469 kts | 162° |
| 2026-04-22 07:13 | 45.04677 | 23.18138 | 35054 ft | 469 kts | 162° |
| 2026-04-22 07:13 | 44.98572 | 23.21456 | 35048 ft | 469 kts | 162° |
| 2026-04-22 07:14 | 44.92478 | 23.24757 | 35048 ft | 470 kts | 162° |
| 2026-04-22 07:14 | 44.86374 | 23.28063 | 35050 ft | 470 kts | 162° |
| 2026-04-22 07:15 | 44.80271 | 23.31365 | 35057 ft | 470 kts | 162° |
| 2026-04-22 07:15 | 44.74166 | 23.34658 | 35060 ft | 470 kts | 162° |
| 2026-04-22 07:16 | 44.68059 | 23.37947 | 35051 ft | 470 kts | 162° |
| 2026-04-22 07:16 | 44.61992 | 23.41206 | 35058 ft | 470 kts | 162° |
| 2026-04-22 07:17 | 44.55872 | 23.44489 | 35053 ft | 471 kts | 162° |
| 2026-04-22 07:17 | 44.49750 | 23.47770 | 35055 ft | 471 kts | 163° |
| 2026-04-22 07:18 | 44.43627 | 23.51028 | 35063 ft | 471 kts | 163° |
| 2026-04-22 07:18 | 44.37496 | 23.54286 | 35068 ft | 471 kts | 163° |
| 2026-04-22 07:19 | 44.31366 | 23.57543 | 35073 ft | 471 kts | 163° |
| 2026-04-22 07:19 | 44.25228 | 23.60792 | 35077 ft | 471 kts | 163° |
| 2026-04-22 07:20 | 44.19095 | 23.64040 | 35076 ft | 471 kts | 163° |
| 2026-04-22 07:20 | 44.12966 | 23.67275 | 35071 ft | 471 kts | 163° |
| 2026-04-22 07:21 | 44.06832 | 23.70490 | 35072 ft | 472 kts | 164° |
| 2026-04-22 07:21 | 44.00573 | 23.72972 | 35066 ft | 466 kts | 172° |
| 2026-04-22 07:22 | 43.94245 | 23.74978 | 35063 ft | 467 kts | 172° |
| 2026-04-22 07:22 | 43.87948 | 23.76963 | 35068 ft | 466 kts | 172° |
| 2026-04-22 07:23 | 43.81619 | 23.78964 | 35069 ft | 467 kts | 172° |
| 2026-04-22 07:23 | 43.75656 | 23.80024 | 35065 ft | 456 kts | 186° |
| 2026-04-22 07:24 | 43.69307 | 23.80099 | 35071 ft | 456 kts | 185° |
| 2026-04-22 07:24 | 43.62956 | 23.80186 | 35075 ft | 456 kts | 186° |
| 2026-04-22 07:25 | 43.56605 | 23.80271 | 35076 ft | 456 kts | 186° |
| 2026-04-22 07:25 | 43.50249 | 23.80356 | 35084 ft | 456 kts | 186° |
| 2026-04-22 07:26 | 43.43908 | 23.80429 | 35082 ft | 456 kts | 186° |
| 2026-04-22 07:26 | 43.37570 | 23.80497 | 35077 ft | 455 kts | 186° |
| 2026-04-22 07:27 | 43.31244 | 23.80572 | 35078 ft | 455 kts | 186° |
| 2026-04-22 07:27 | 43.24913 | 23.80655 | 35078 ft | 455 kts | 186° |
| 2026-04-22 07:28 | 43.15420 | 23.80825 | 35073 ft | 458 kts | 183° |
| 2026-04-22 07:28 | 43.09053 | 23.82078 | 35075 ft | 463 kts | 178° |
| 2026-04-22 07:29 | 43.02728 | 23.83433 | 35075 ft | 463 kts | 179° |
| 2026-04-22 07:29 | 42.96371 | 23.84781 | 35072 ft | 462 kts | 179° |
| 2026-04-22 07:30 | 42.90022 | 23.86139 | 35074 ft | 462 kts | 179° |
| 2026-04-22 07:30 | 42.83671 | 23.87487 | 35058 ft | 461 kts | 179° |
| 2026-04-22 07:31 | 42.77329 | 23.88827 | 35054 ft | 462 kts | 179° |
| 2026-04-22 07:31 | 42.70981 | 23.90087 | 35052 ft | 459 kts | 181° |
| 2026-04-22 07:32 | 42.64649 | 23.91065 | 35047 ft | 457 kts | 183° |
| 2026-04-22 07:32 | 42.58322 | 23.91990 | 35046 ft | 457 kts | 182° |
| 2026-04-22 07:33 | 42.51995 | 23.92971 | 35039 ft | 457 kts | 182° |
| 2026-04-22 07:33 | 42.45673 | 23.93990 | 35046 ft | 457 kts | 182° |
| 2026-04-22 07:34 | 42.39358 | 23.95017 | 35032 ft | 457 kts | 182° |
| 2026-04-22 07:34 | 42.33046 | 23.96033 | 35036 ft | 457 kts | 183° |
| 2026-04-22 07:35 | 42.26731 | 23.97032 | 35035 ft | 457 kts | 183° |
| 2026-04-22 07:35 | 42.20455 | 23.98020 | 35041 ft | 457 kts | 183° |
| 2026-04-22 07:36 | 42.14149 | 23.99016 | 35041 ft | 456 kts | 183° |
| 2026-04-22 07:36 | 42.07839 | 24.00019 | 35038 ft | 455 kts | 183° |
| 2026-04-22 07:37 | 42.01539 | 24.01011 | 35040 ft | 456 kts | 183° |
| 2026-04-22 07:37 | 41.95226 | 24.02198 | 35042 ft | 460 kts | 179° |
| 2026-04-22 07:38 | 41.88920 | 24.03795 | 35042 ft | 462 kts | 178° |
| 2026-04-22 07:38 | 41.82611 | 24.05449 | 35051 ft | 462 kts | 178° |
| 2026-04-22 07:39 | 41.76299 | 24.07005 | 35053 ft | 460 kts | 179° |
| 2026-04-22 07:39 | 41.69990 | 24.08498 | 35051 ft | 460 kts | 179° |
| 2026-04-22 07:40 | 41.63686 | 24.09995 | 35044 ft | 460 kts | 179° |
| 2026-04-22 07:40 | 41.57376 | 24.11510 | 35040 ft | 460 kts | 179° |
| 2026-04-22 07:41 | 41.51176 | 24.14135 | 35034 ft | 476 kts | 164° |
| 2026-04-22 07:41 | 41.46120 | 24.17033 | 35032 ft | 476 kts | 165° |
| 2026-04-22 07:42 | 41.39042 | 24.21059 | 35036 ft | 476 kts | 165° |
| 2026-04-22 07:42 | 41.33940 | 24.23949 | 35034 ft | 476 kts | 165° |
| 2026-04-22 07:43 | 41.27852 | 24.27396 | 35035 ft | 475 kts | 164° |
| 2026-04-22 07:43 | 41.21800 | 24.30825 | 35028 ft | 475 kts | 164° |
| 2026-04-22 07:44 | 41.15712 | 24.34261 | 35036 ft | 476 kts | 164° |
| 2026-04-22 07:44 | 41.09625 | 24.37674 | 35039 ft | 475 kts | 164° |
| 2026-04-22 07:45 | 41.03526 | 24.41097 | 35044 ft | 475 kts | 164° |
| 2026-04-22 07:45 | 40.97444 | 24.44516 | 35043 ft | 475 kts | 164° |
| 2026-04-22 07:46 | 40.91368 | 24.47918 | 35044 ft | 475 kts | 164° |
| 2026-04-22 07:46 | 40.85277 | 24.51311 | 35048 ft | 475 kts | 164° |
| 2026-04-22 07:47 | 40.79192 | 24.54695 | 35048 ft | 474 kts | 163° |
| 2026-04-22 07:47 | 40.73109 | 24.58070 | 35048 ft | 475 kts | 163° |
| 2026-04-22 07:48 | 40.67021 | 24.61450 | 35044 ft | 475 kts | 163° |
| 2026-04-22 07:48 | 40.60939 | 24.64829 | 35033 ft | 475 kts | 163° |
| 2026-04-22 07:49 | 40.54859 | 24.68207 | 35024 ft | 474 kts | 163° |
| 2026-04-22 07:49 | 40.48767 | 24.71565 | 35026 ft | 474 kts | 163° |
| 2026-04-22 07:50 | 40.42681 | 24.74918 | 35027 ft | 474 kts | 163° |
| 2026-04-22 07:50 | 40.36594 | 24.78263 | 35025 ft | 474 kts | 163° |
| 2026-04-22 07:51 | 40.30498 | 24.81603 | 35024 ft | 474 kts | 163° |
| 2026-04-22 07:51 | 40.24408 | 24.84933 | 35019 ft | 474 kts | 163° |
| 2026-04-22 07:52 | 40.18319 | 24.88258 | 35021 ft | 474 kts | 163° |
| 2026-04-22 07:52 | 40.12233 | 24.91577 | 35016 ft | 474 kts | 163° |
| 2026-04-22 07:53 | 40.06142 | 24.94893 | 35024 ft | 474 kts | 163° |
| 2026-04-22 07:53 | 40.00099 | 24.98178 | 35016 ft | 474 kts | 163° |
| 2026-04-22 07:54 | 39.94011 | 25.01478 | 35010 ft | 474 kts | 163° |
| 2026-04-22 07:54 | 39.87928 | 25.04771 | 35004 ft | 473 kts | 163° |
| 2026-04-22 07:55 | 39.81842 | 25.08062 | 35000 ft | 473 kts | 163° |
| 2026-04-22 07:55 | 39.75759 | 25.11345 | 34999 ft | 473 kts | 163° |
| 2026-04-22 07:56 | 39.69668 | 25.14618 | 34996 ft | 473 kts | 163° |
| 2026-04-22 07:56 | 39.63581 | 25.17880 | 34995 ft | 473 kts | 163° |
| 2026-04-22 07:57 | 39.57484 | 25.21144 | 34987 ft | 474 kts | 163° |
| 2026-04-22 07:57 | 39.51387 | 25.24411 | 34993 ft | 474 kts | 163° |
| 2026-04-22 07:58 | 39.45298 | 25.27669 | 34991 ft | 474 kts | 163° |
| 2026-04-22 07:58 | 39.39199 | 25.30921 | 34988 ft | 474 kts | 163° |
| 2026-04-22 07:59 | 39.33102 | 25.34166 | 34985 ft | 474 kts | 163° |
| 2026-04-22 07:59 | 39.27043 | 25.37376 | 34981 ft | 474 kts | 163° |
| 2026-04-22 08:00 | 39.20943 | 25.40604 | 34979 ft | 474 kts | 163° |
| 2026-04-22 08:00 | 39.14843 | 25.43837 | 34973 ft | 474 kts | 163° |
| 2026-04-22 08:01 | 39.08741 | 25.47053 | 34970 ft | 474 kts | 163° |
| 2026-04-22 08:01 | 39.02635 | 25.50266 | 34972 ft | 474 kts | 163° |
| 2026-04-22 08:02 | 38.96530 | 25.53479 | 34966 ft | 474 kts | 163° |
| 2026-04-22 08:02 | 38.90451 | 25.56674 | 34972 ft | 474 kts | 163° |
| 2026-04-22 08:03 | 38.84330 | 25.59886 | 34961 ft | 473 kts | 163° |
| 2026-04-22 08:03 | 38.78234 | 25.63080 | 34966 ft | 473 kts | 163° |
| 2026-04-22 08:04 | 38.72137 | 25.66264 | 34969 ft | 473 kts | 163° |
| 2026-04-22 08:04 | 38.66032 | 25.69442 | 34966 ft | 473 kts | 163° |
| 2026-04-22 08:05 | 38.59929 | 25.72603 | 34959 ft | 473 kts | 163° |
| 2026-04-22 08:05 | 38.53827 | 25.75765 | 34958 ft | 473 kts | 163° |
| 2026-04-22 08:06 | 38.47730 | 25.78932 | 34955 ft | 473 kts | 163° |
| 2026-04-22 08:06 | 38.41624 | 25.82096 | 34950 ft | 473 kts | 163° |
| 2026-04-22 08:07 | 38.35519 | 25.85247 | 34948 ft | 473 kts | 163° |
| 2026-04-22 08:07 | 38.29408 | 25.88386 | 34948 ft | 473 kts | 163° |
| 2026-04-22 08:08 | 38.23296 | 25.91506 | 34948 ft | 473 kts | 164° |
| 2026-04-22 08:08 | 38.17165 | 25.94362 | 34949 ft | 472 kts | 166° |
| 2026-04-22 08:09 | 38.10962 | 25.97093 | 34949 ft | 472 kts | 166° |
| 2026-04-22 08:09 | 38.04767 | 25.99850 | 34956 ft | 472 kts | 166° |
| 2026-04-22 08:10 | 37.98584 | 26.02667 | 34959 ft | 472 kts | 166° |
| 2026-04-22 08:10 | 37.92406 | 26.05498 | 34960 ft | 472 kts | 166° |
| 2026-04-22 08:11 | 37.86215 | 26.08303 | 34962 ft | 472 kts | 166° |
| 2026-04-22 08:11 | 37.80029 | 26.11096 | 34961 ft | 472 kts | 166° |
| 2026-04-22 08:12 | 37.73835 | 26.13881 | 34969 ft | 472 kts | 166° |
| 2026-04-22 08:12 | 37.67646 | 26.16660 | 34967 ft | 472 kts | 166° |
| 2026-04-22 08:13 | 37.61495 | 26.19422 | 34970 ft | 472 kts | 166° |
| 2026-04-22 08:13 | 37.55307 | 26.22207 | 34976 ft | 472 kts | 166° |
| 2026-04-22 08:14 | 37.49119 | 26.24977 | 34981 ft | 472 kts | 166° |
| 2026-04-22 08:14 | 37.42934 | 26.27747 | 34976 ft | 472 kts | 166° |
| 2026-04-22 08:15 | 37.36757 | 26.30506 | 34988 ft | 471 kts | 166° |
| 2026-04-22 08:15 | 37.33656 | 26.31885 | 34668 ft | 473 kts | 166° |
| 2026-04-22 08:15 | 37.30533 | 26.33268 | 33935 ft | 476 kts | 166° |
| 2026-04-22 08:16 | 37.27412 | 26.34651 | 33326 ft | 475 kts | 166° |
| 2026-04-22 08:16 | 37.24302 | 26.36031 | 32804 ft | 474 kts | 166° |
| 2026-04-22 08:16 | 37.21183 | 26.37415 | 32298 ft | 474 kts | 166° |
| 2026-04-22 08:16 | 37.18111 | 26.38780 | 31813 ft | 473 kts | 165° |
| 2026-04-22 08:17 | 37.15024 | 26.40154 | 31327 ft | 469 kts | 165° |
| 2026-04-22 08:17 | 37.11959 | 26.41521 | 30848 ft | 466 kts | 165° |
| 2026-04-22 08:17 | 37.08920 | 26.42874 | 30376 ft | 462 kts | 165° |
| 2026-04-22 08:17 | 37.05904 | 26.44211 | 29892 ft | 458 kts | 165° |
| 2026-04-22 08:18 | 37.02914 | 26.45530 | 29351 ft | 454 kts | 165° |
| 2026-04-22 08:18 | 36.99946 | 26.46837 | 28817 ft | 450 kts | 165° |
| 2026-04-22 08:18 | 36.96999 | 26.48135 | 28293 ft | 446 kts | 165° |
| 2026-04-22 08:18 | 36.94104 | 26.49500 | 27776 ft | 446 kts | 159° |
| 2026-04-22 08:19 | 36.91430 | 26.51443 | 27280 ft | 448 kts | 147° |
| 2026-04-22 08:19 | 36.89094 | 26.54031 | 26783 ft | 449 kts | 134° |
| 2026-04-22 08:19 | 36.87236 | 26.57114 | 26305 ft | 448 kts | 122° |
| 2026-04-22 08:19 | 36.85867 | 26.60608 | 25835 ft | 446 kts | 113° |
| 2026-04-22 08:20 | 36.84664 | 26.64157 | 25362 ft | 443 kts | 114° |
| 2026-04-22 08:20 | 36.83454 | 26.67681 | 24906 ft | 440 kts | 114° |
| 2026-04-22 08:20 | 36.82247 | 26.71174 | 24451 ft | 437 kts | 114° |
| 2026-04-22 08:20 | 36.81047 | 26.74644 | 24003 ft | 434 kts | 114° |
| 2026-04-22 08:21 | 36.79863 | 26.78074 | 23559 ft | 431 kts | 114° |
| 2026-04-22 08:21 | 36.78679 | 26.81503 | 23042 ft | 428 kts | 114° |
| 2026-04-22 08:21 | 36.77507 | 26.84899 | 22515 ft | 424 kts | 114° |
| 2026-04-22 08:21 | 36.76344 | 26.88262 | 22024 ft | 421 kts | 114° |
| 2026-04-22 08:22 | 36.75187 | 26.91600 | 21527 ft | 418 kts | 114° |
| 2026-04-22 08:22 | 36.74054 | 26.94872 | 21038 ft | 415 kts | 114° |
| 2026-04-22 08:22 | 36.72917 | 26.98161 | 20566 ft | 412 kts | 114° |
| 2026-04-22 08:22 | 36.71771 | 27.01469 | 20085 ft | 409 kts | 114° |
| 2026-04-22 08:23 | 36.70660 | 27.04669 | 19628 ft | 406 kts | 114° |
| 2026-04-22 08:23 | 36.69543 | 27.07885 | 19171 ft | 404 kts | 114° |
| 2026-04-22 08:23 | 36.68429 | 27.11087 | 18719 ft | 401 kts | 114° |
| 2026-04-22 08:23 | 36.67320 | 27.14267 | 18288 ft | 399 kts | 114° |
| 2026-04-22 08:24 | 36.66222 | 27.17413 | 17780 ft | 396 kts | 114° |
| 2026-04-22 08:24 | 36.65118 | 27.20564 | 17278 ft | 394 kts | 114° |
| 2026-04-22 08:24 | 36.64025 | 27.23682 | 16787 ft | 392 kts | 114° |
| 2026-04-22 08:24 | 36.62937 | 27.26784 | 16302 ft | 390 kts | 114° |
| 2026-04-22 08:25 | 36.61854 | 27.29871 | 15825 ft | 388 kts | 114° |
| 2026-04-22 08:25 | 36.60772 | 27.32947 | 15353 ft | 386 kts | 114° |
| 2026-04-22 08:25 | 36.59698 | 27.35999 | 14891 ft | 384 kts | 114° |
| 2026-04-22 08:25 | 36.58626 | 27.39039 | 14430 ft | 382 kts | 114° |
| 2026-04-22 08:26 | 36.57561 | 27.42057 | 13980 ft | 380 kts | 114° |
| 2026-04-22 08:26 | 36.56502 | 27.45059 | 13519 ft | 378 kts | 114° |
| 2026-04-22 08:26 | 36.55452 | 27.48031 | 13124 ft | 372 kts | 115° |
| 2026-04-22 08:26 | 36.54418 | 27.50956 | 12726 ft | 368 kts | 115° |
| 2026-04-22 08:27 | 36.53396 | 27.53847 | 12361 ft | 362 kts | 115° |
| 2026-04-22 08:27 | 36.52391 | 27.56693 | 12013 ft | 357 kts | 115° |
| 2026-04-22 08:27 | 36.51397 | 27.59502 | 11655 ft | 352 kts | 115° |
| 2026-04-22 08:27 | 36.51078 | 27.60402 | 11543 ft | 351 kts | 115° |
| 2026-04-22 08:28 | 36.49929 | 27.63642 | 11134 ft | 344 kts | 115° |
| 2026-04-22 08:28 | 36.48981 | 27.66315 | 10784 ft | 332 kts | 115° |
| 2026-04-22 08:28 | 36.48073 | 27.68866 | 10451 ft | 322 kts | 115° |
| 2026-04-22 08:28 | 36.47185 | 27.71363 | 10120 ft | 311 kts | 115° |
| 2026-04-22 08:29 | 36.46470 | 27.73869 | 9779 ft | 305 kts | 103° |
| 2026-04-22 08:29 | 36.46110 | 27.76451 | 9408 ft | 302 kts | 99° |
| 2026-04-22 08:29 | 36.45792 | 27.78863 | 9059 ft | 301 kts | 100° |
| 2026-04-22 08:29 | 36.45453 | 27.81401 | 8675 ft | 299 kts | 100° |
| 2026-04-22 08:30 | 36.45111 | 27.83945 | 8292 ft | 298 kts | 100° |
| 2026-04-22 08:30 | 36.44770 | 27.86475 | 7918 ft | 296 kts | 100° |
| 2026-04-22 08:30 | 36.44430 | 27.88989 | 7548 ft | 294 kts | 100° |
| 2026-04-22 08:30 | 36.44265 | 27.91507 | 7176 ft | 293 kts | 83° |
| 2026-04-22 08:31 | 36.44655 | 27.93964 | 6915 ft | 289 kts | 76° |
| 2026-04-22 08:31 | 36.45148 | 27.96375 | 6674 ft | 287 kts | 73° |
| 2026-04-22 08:31 | 36.46410 | 28.01037 | 6177 ft | 280 kts | 70° |
| 2026-04-22 08:32 | 36.47046 | 28.03292 | 5922 ft | 274 kts | 70° |
| 2026-04-22 08:32 | 36.47471 | 28.04790 | 5739 ft | 270 kts | 70° |
| 2026-04-22 08:32 | 36.48088 | 28.06962 | 5496 ft | 264 kts | 70° |
| 2026-04-22 08:32 | 36.48697 | 28.09097 | 5246 ft | 259 kts | 70° |
| 2026-04-22 08:33 | 36.49289 | 28.11167 | 5000 ft | 256 kts | 70° |
| 2026-04-22 08:33 | 36.49881 | 28.13231 | 4770 ft | 250 kts | 70° |
| 2026-04-22 08:33 | 36.50458 | 28.15228 | 4523 ft | 241 kts | 70° |
| 2026-04-22 08:33 | 36.51021 | 28.17157 | 4264 ft | 234 kts | 71° |
| 2026-04-22 08:34 | 36.51572 | 28.19041 | 4001 ft | 230 kts | 72° |
| 2026-04-22 08:34 | 36.51713 | 28.20974 | 3734 ft | 224 kts | 104° |
| 2026-04-22 08:34 | 36.51002 | 28.22618 | 3440 ft | 215 kts | 139° |
| 2026-04-22 08:34 | 36.49718 | 28.23406 | 3341 ft | 206 kts | 169° |
| 2026-04-22 08:35 | 36.48301 | 28.23517 | 3253 ft | 201 kts | 183° |
| 2026-04-22 08:35 | 36.46945 | 28.23288 | 3166 ft | 196 kts | 193° |
| 2026-04-22 08:35 | 36.45742 | 28.22801 | 3083 ft | 194 kts | 206° |
| 2026-04-22 08:35 | 36.44671 | 28.21805 | 2879 ft | 192 kts | 226° |
| 2026-04-22 08:36 | 36.43973 | 28.20396 | 2512 ft | 191 kts | 248° |
| 2026-04-22 08:36 | 36.43538 | 28.18896 | 2149 ft | 178 kts | 248° |
| 2026-04-22 08:36 | 36.43138 | 28.17524 | 1777 ft | 162 kts | 248° |
| 2026-04-22 08:36 | 36.42761 | 28.16235 | 1397 ft | 156 kts | 248° |
| 2026-04-22 08:37 | 36.42397 | 28.14990 | 1001 ft | 151 kts | 248° |
| 2026-04-22 08:37 | 36.42041 | 28.13768 | 685 ft | 151 kts | 249° |
| 2026-04-22 08:37 | 36.41681 | 28.12553 | 432 ft | 150 kts | 250° |
| 2026-04-22 08:37 | 36.41325 | 28.11338 | 242 ft | 150 kts | 253° |
| 2026-04-22 08:38 | 36.40972 | 28.10121 | 39 ft | 149 kts | 253° |
| 2026-04-22 08:38 | 36.40670 | 28.09074 | 30 ft | 103 kts | 250° |
| 2026-04-22 08:38 | 36.40484 | 28.08443 | 25 ft | 52 kts | 249° |
| 2026-04-22 08:38 | 36.40380 | 28.08103 | 26 ft | 27 kts | 247° |
| 2026-04-22 08:39 | 36.40293 | 28.07971 | 31 ft | 19 kts | 221° |
| 2026-04-22 08:39 | 36.40206 | 28.07881 | 25 ft | 14 kts | 219° |
| 2026-04-22 08:39 | 36.40145 | 28.07887 | 28 ft | 9 kts | 109° |
| 2026-04-22 08:39 | 36.40162 | 28.07967 | 28 ft | 13 kts | 69° |
| 2026-04-22 08:40 | 36.40198 | 28.08091 | 29 ft | 15 kts | 70° |
| 2026-04-22 08:40 | 36.40234 | 28.08213 | 30 ft | 19 kts | 70° |
| 2026-04-22 08:40 | 36.40287 | 28.08391 | 27 ft | 23 kts | 70° |
| 2026-04-22 08:40 | 36.40342 | 28.08578 | 29 ft | 23 kts | 70° |
| 2026-04-22 08:41 | 36.40392 | 28.08755 | 29 ft | 21 kts | 71° |
| 2026-04-22 08:41 | 36.40396 | 28.08925 | 29 ft | 20 kts | 92° |
| 2026-04-22 08:41 | 36.40421 | 28.09074 | 29 ft | 9 kts | 71° |
| 2026-04-22 08:41 | 36.40417 | 28.09116 | 29 ft | 4 kts | 133° |
| 2026-04-22 08:42 | 36.40396 | 28.09128 | 29 ft | 3 kts | 159° |
| 2026-04-22 08:42 | 36.40383 | 28.09135 | 29 ft | 2 kts | 159° |
| 2026-04-22 08:42 | 36.40377 | 28.09137 | 29 ft | 0 kts | 159° |
| 2026-04-22 08:43 | 36.40375 | 28.09138 | 29 ft | 0 kts | 159° |